createdAt,value
2023-02-12T00:02:01.519Z,1.63
2023-02-12T00:04:07.123Z,1.58
2023-02-12T00:06:15.780Z,1.49
2023-02-12T00:08:21.793Z,1.41
2023-02-12T00:10:31.124Z,1.3
2023-02-12T00:12:37.153Z,1.27
2023-02-12T00:14:42.767Z,1.29
2023-02-12T00:16:48.445Z,1.28
2023-02-12T00:18:58.008Z,1.24
2023-02-12T00:21:03.702Z,1.19
2023-02-12T00:23:09.296Z,1.15
2023-02-12T00:25:14.923Z,1.11
2023-02-12T00:27:21.731Z,1.04
2023-02-12T00:31:49.408Z,0.97
2023-02-12T00:33:54.986Z,0.96
2023-02-12T00:36:00.511Z,0.93
2023-02-12T00:38:06.993Z,0.9
2023-02-12T00:40:13.340Z,0.88
2023-02-12T00:42:18.972Z,0.86
2023-02-12T00:44:27.788Z,0.86
2023-02-12T00:46:34.847Z,0.85
2023-02-12T00:48:40.457Z,0.82
2023-02-12T00:50:45.900Z,0.8
2023-02-12T00:52:51.101Z,0.8
2023-02-12T00:54:56.258Z,0.78
2023-02-12T00:57:01.448Z,0.77
2023-02-12T00:59:07.121Z,0.75
2023-02-12T01:01:12.406Z,0.72
2023-02-12T01:03:17.972Z,0.71
2023-02-12T01:05:23.823Z,0.69
2023-02-12T01:07:29.656Z,0.65
2023-02-12T01:09:36.307Z,0.62
2023-02-12T01:11:41.397Z,0.61
2023-02-12T01:13:46.561Z,0.62
2023-02-12T01:15:52.189Z,0.61
2023-02-12T01:18:03.948Z,0.58
2023-02-12T01:20:11.159Z,0.55
2023-02-12T01:22:16.541Z,0.51
2023-02-12T01:24:21.836Z,0.5
2023-02-12T01:26:27.197Z,0.48
2023-02-12T01:28:32.884Z,0.45
2023-02-12T01:30:39.425Z,0.46
2023-02-12T01:32:45.031Z,0.43
2023-02-12T01:37:21.813Z,0.38
2023-02-12T01:41:53.525Z,0.36
2023-02-12T01:43:59.795Z,0.34
2023-02-12T01:46:04.971Z,0.35
2023-02-12T01:48:15.586Z,0.33
2023-02-12T01:50:20.996Z,0.34
2023-02-12T01:52:26.299Z,0.31
2023-02-12T01:54:31.538Z,0.3
2023-02-12T01:56:36.937Z,0.26
2023-02-12T01:58:42.228Z,0.24
2023-02-12T02:00:47.685Z,0.28
2023-02-12T02:02:52.906Z,0.3
2023-02-12T02:05:01.702Z,0.32
2023-02-12T02:07:07.172Z,0.32
2023-02-12T02:09:16.016Z,0.33
2023-02-12T02:11:22.433Z,0.32
2023-02-12T02:15:53.918Z,0.29
2023-02-12T02:18:01.255Z,0.29
2023-02-12T02:20:06.547Z,0.28
2023-02-12T02:22:11.744Z,0.28
2023-02-12T02:24:16.917Z,0.26
2023-02-12T02:26:22.239Z,0.27
2023-02-12T02:28:27.690Z,0.27
2023-02-12T02:30:34.162Z,0.23
2023-02-12T02:32:39.476Z,0.24
2023-02-12T02:34:47.021Z,0.25
2023-02-12T02:37:00.362Z,0.25
2023-02-12T02:39:07.209Z,0.2
2023-02-12T02:41:12.407Z,0.22
2023-02-12T02:43:17.573Z,0.25
2023-02-12T02:45:23.317Z,0.26
2023-02-12T02:47:28.783Z,0.29
2023-02-12T02:49:33.805Z,0.28
2023-02-12T02:51:39.101Z,0.26
2023-02-12T02:53:46.583Z,0.21
2023-02-12T02:55:52.035Z,0.19
2023-02-12T02:57:59.297Z,0.19
2023-02-12T03:00:04.538Z,0.17
2023-02-12T03:02:09.827Z,0.17
2023-02-12T03:04:15.197Z,0.16
2023-02-12T03:06:20.435Z,0.13
2023-02-12T03:08:26.743Z,0.13
2023-02-12T03:10:31.815Z,0.12
2023-02-12T03:12:37.889Z,0.11
2023-02-12T03:14:43.285Z,0.12
2023-02-12T03:16:48.858Z,0.12
2023-02-12T03:18:54.278Z,0.1
2023-02-12T03:21:00.095Z,0.08
2023-02-12T03:23:05.481Z,0.09
2023-02-12T03:25:11.703Z,0.08
2023-02-12T03:27:17.536Z,0.09
2023-02-12T03:29:23.124Z,0.08
2023-02-12T03:31:30.516Z,0.07
2023-02-12T03:33:36.321Z,0.07
2023-02-12T03:35:41.819Z,0.07
2023-02-12T03:37:47.205Z,0.06
2023-02-12T03:39:52.549Z,0.04
2023-02-12T03:41:58.835Z,0.02
2023-02-12T03:44:07.164Z,0.04
2023-02-12T03:46:13.456Z,0.05
2023-02-12T03:50:39.909Z,0.02
2023-02-12T03:52:45.145Z,0.01
2023-02-12T03:54:50.706Z,0.03
2023-02-12T03:56:55.915Z,0.02
2023-02-12T03:59:02.057Z,0
2023-02-12T04:01:08.648Z,-0.02
2023-02-12T04:03:15.502Z,-0.01
2023-02-12T04:05:20.729Z,-0.02
2023-02-12T04:07:25.912Z,-0.05
2023-02-12T04:09:31.664Z,-0.05
2023-02-12T04:11:37.197Z,-0.05
2023-02-12T04:13:44.739Z,-0.05
2023-02-12T04:15:50.586Z,-0.05
2023-02-12T04:17:57.512Z,-0.08
2023-02-12T04:20:03.337Z,-0.11
2023-02-12T04:22:08.889Z,-0.13
2023-02-12T04:24:16.454Z,-0.1
2023-02-12T04:26:21.833Z,-0.1
2023-02-12T04:28:30.932Z,-0.1
2023-02-12T04:30:36.664Z,-0.11
2023-02-12T04:32:42.396Z,-0.13
2023-02-12T04:34:47.744Z,-0.13
2023-02-12T04:36:53.181Z,-0.14
2023-02-12T04:39:03.926Z,-0.15
2023-02-12T04:41:12.867Z,-0.15
2023-02-12T04:43:18.259Z,-0.17
2023-02-12T04:45:23.535Z,-0.18
2023-02-12T04:47:29.919Z,-0.21
2023-02-12T04:49:37.119Z,-0.25
2023-02-12T04:51:42.422Z,-0.26
2023-02-12T04:53:48.790Z,-0.28
2023-02-12T04:55:57.955Z,-0.33
2023-02-12T04:58:03.435Z,-0.35
2023-02-12T05:00:09.804Z,-0.37
2023-02-12T05:02:15.168Z,-0.38
2023-02-12T05:04:20.395Z,-0.4
2023-02-12T05:06:25.753Z,-0.44
2023-02-12T05:08:30.899Z,-0.43
2023-02-12T05:10:36.149Z,-0.33
2023-02-12T05:12:41.656Z,-0.3
2023-02-12T05:14:48.033Z,-0.27
2023-02-12T05:16:54.922Z,-0.28
2023-02-12T05:19:00.175Z,-0.29
2023-02-12T05:21:05.559Z,-0.3
2023-02-12T05:23:10.932Z,-0.31
2023-02-12T05:25:16.388Z,-0.31
2023-02-12T05:27:24.870Z,-0.3
2023-02-12T05:29:30.109Z,-0.27
2023-02-12T05:31:35.939Z,-0.25
2023-02-12T05:33:41.940Z,-0.21
2023-02-12T05:35:47.204Z,-0.23
2023-02-12T05:37:52.531Z,-0.24
2023-02-12T05:39:57.733Z,-0.25
2023-02-12T05:42:03.124Z,-0.26
2023-02-12T05:44:08.348Z,-0.23
2023-02-12T05:46:13.814Z,-0.21
2023-02-12T05:48:19.701Z,-0.22
2023-02-12T05:50:24.846Z,-0.25
2023-02-12T05:52:30.253Z,-0.3
2023-02-12T05:54:35.564Z,-0.33
2023-02-12T05:56:40.962Z,-0.35
2023-02-12T05:58:46.233Z,-0.36
2023-02-12T06:00:51.448Z,-0.36
2023-02-12T06:02:57.628Z,-0.36
2023-02-12T06:05:02.930Z,-0.41
2023-02-12T06:07:11.958Z,-0.44
2023-02-12T06:09:17.442Z,-0.42
2023-02-12T06:11:25.829Z,-0.36
2023-02-12T06:13:34.765Z,-0.35
2023-02-12T06:15:39.964Z,-0.34
2023-02-12T06:17:45.426Z,-0.34
2023-02-12T06:19:50.552Z,-0.32
2023-02-12T06:21:55.680Z,-0.31
2023-02-12T06:24:03.400Z,-0.32
2023-02-12T06:26:08.961Z,-0.31
2023-02-12T06:28:14.171Z,-0.31
2023-02-12T06:30:19.817Z,-0.28
2023-02-12T06:32:24.947Z,-0.26
2023-02-12T06:34:30.203Z,-0.23
2023-02-12T06:36:35.608Z,-0.18
2023-02-12T06:38:40.811Z,-0.14
2023-02-12T06:40:45.983Z,-0.14
2023-02-12T06:42:51.457Z,-0.11
2023-02-12T06:44:56.669Z,-0.13
2023-02-12T06:47:02.088Z,-0.1
2023-02-12T06:49:07.359Z,-0.1
2023-02-12T06:51:13.128Z,-0.07
2023-02-12T06:53:18.969Z,-0.03
2023-02-12T06:55:24.414Z,0.02
2023-02-12T06:57:29.581Z,0.03
2023-02-12T06:59:34.863Z,0.02
2023-02-12T07:01:41.055Z,0.04
2023-02-12T07:03:47.432Z,0.13
2023-02-12T07:05:53.161Z,0.1
2023-02-12T07:07:59.859Z,0.13
2023-02-12T07:10:08.254Z,0.11
2023-02-12T07:12:14.507Z,0.14
2023-02-12T07:14:19.969Z,0.17
2023-02-12T07:16:25.384Z,0.16
2023-02-12T07:18:30.898Z,0.09
2023-02-12T07:20:36.512Z,0.03
2023-02-12T07:22:41.496Z,0.05
2023-02-12T07:24:46.787Z,0.05
2023-02-12T07:26:52.090Z,0.18
2023-02-12T07:29:01.000Z,0.22
2023-02-12T07:31:06.226Z,0.32
2023-02-12T07:33:12.468Z,0.47
2023-02-12T07:35:17.570Z,0.41
2023-02-12T07:37:22.807Z,0.43
2023-02-12T07:39:28.088Z,0.54
2023-02-12T07:41:33.683Z,0.42
2023-02-12T07:43:38.756Z,0.36
2023-02-12T07:45:44.080Z,0.35
2023-02-12T07:47:49.507Z,0.28
2023-02-12T07:49:54.762Z,0.11
2023-02-12T07:51:59.917Z,0.12
2023-02-12T07:54:05.020Z,-0.01
2023-02-12T07:56:13.669Z,-0.06
2023-02-12T07:58:19.071Z,-0.03
2023-02-12T08:00:26.535Z,0
2023-02-12T08:02:36.883Z,0.12
2023-02-12T08:04:46.716Z,0.15
2023-02-12T08:06:52.527Z,0.28
2023-02-12T08:08:59.088Z,0.31
2023-02-12T08:11:09.013Z,0.36
2023-02-12T08:13:18.059Z,0.59
2023-02-12T08:15:28.814Z,0.73
2023-02-12T08:17:34.800Z,0.73
2023-02-12T08:19:46.098Z,0.65
2023-02-12T08:21:53.422Z,0.15
2023-02-12T08:24:02.933Z,0.14
2023-02-12T08:26:13.050Z,0.18
2023-02-12T08:28:21.108Z,0.18
2023-02-12T08:30:30.283Z,0.29
2023-02-12T08:32:36.817Z,0.29
2023-02-12T08:34:46.311Z,0.39
2023-02-12T08:36:54.908Z,0.32
2023-02-12T08:39:05.610Z,0.31
2023-02-12T08:41:16.684Z,0.37
2023-02-12T08:46:43.642Z,0.5
2023-02-12T08:48:49.291Z,0.65
2023-02-12T08:50:54.771Z,0.77
2023-02-12T08:53:03.888Z,1.17
2023-02-12T08:55:10.124Z,1.51
2023-02-12T08:57:16.308Z,1.81
2023-02-12T08:59:22.110Z,2.14
2023-02-12T09:01:27.376Z,2.31
2023-02-12T09:03:36.014Z,2.44
2023-02-12T09:05:41.488Z,2.19
2023-02-12T09:07:47.995Z,2.06
2023-02-12T09:09:57.304Z,1.69
2023-02-12T09:12:03.498Z,1.91
2023-02-12T09:14:09.081Z,1.63
2023-02-12T09:16:14.514Z,1.28
2023-02-12T09:18:20.057Z,1.5
2023-02-12T09:20:26.585Z,1.58
2023-02-12T09:22:32.667Z,1.36
2023-02-12T09:24:38.009Z,1.48
2023-02-12T09:26:45.435Z,1.96
2023-02-12T09:28:50.846Z,1.74
2023-02-12T09:30:58.307Z,1.5
2023-02-12T09:33:04.098Z,1.7
2023-02-12T09:35:09.392Z,1.98
2023-02-12T09:37:17.002Z,2.38
2023-02-12T09:39:23.941Z,2.99
2023-02-12T09:41:29.789Z,3.41
2023-02-12T09:43:35.213Z,3.7
2023-02-12T09:45:42.026Z,3.46
2023-02-12T09:47:48.401Z,4.3
2023-02-12T09:49:53.929Z,3.31
2023-02-12T09:52:00.214Z,3.94
2023-02-12T09:54:06.082Z,4.64
2023-02-12T09:56:16.135Z,5.12
2023-02-12T09:58:23.161Z,3.99
2023-02-12T10:00:28.628Z,5.29
2023-02-12T10:02:34.796Z,6.11
2023-02-12T10:04:51.672Z,6.14
2023-02-12T10:07:06.854Z,5.86
2023-02-12T10:09:11.959Z,5.22
2023-02-12T10:11:17.154Z,5.31
2023-02-12T10:13:22.811Z,4.63
2023-02-12T10:15:28.235Z,4.12
2023-02-12T10:17:33.669Z,5.41
2023-02-12T10:19:39.567Z,5.29
2023-02-12T10:21:45.057Z,5.44
2023-02-12T10:23:51.106Z,4.81
2023-02-12T10:25:57.410Z,5.31
2023-02-12T10:28:04.939Z,5.2
2023-02-12T10:30:10.902Z,6.16
2023-02-12T10:32:16.582Z,7.36
2023-02-12T10:34:23.053Z,8.16
2023-02-12T10:36:33.876Z,6.79
2023-02-12T10:38:39.292Z,6.72
2023-02-12T10:40:45.248Z,6.41
2023-02-12T10:42:52.133Z,5.94
2023-02-12T10:44:58.854Z,5.8
2023-02-12T10:47:05.002Z,5.38
2023-02-12T10:49:10.700Z,5.71
2023-02-12T10:51:17.342Z,6.18
2023-02-12T10:53:23.584Z,5.03
2023-02-12T10:55:31.053Z,5.07
2023-02-12T10:57:40.615Z,6.66
2023-02-12T10:59:47.708Z,5.41
2023-02-12T11:01:55.578Z,5.35
2023-02-12T11:04:04.383Z,5.92
2023-02-12T11:06:11.930Z,5.96
2023-02-12T11:08:19.999Z,6.14
2023-02-12T11:10:26.381Z,5.9
2023-02-12T11:12:34.880Z,6.54
2023-02-12T11:14:41.862Z,6.17
2023-02-12T11:16:49.442Z,5.04
2023-02-12T11:18:59.297Z,5.78
2023-02-12T11:21:05.617Z,5.55
2023-02-12T11:23:12.378Z,6.41
2023-02-12T11:25:19.975Z,6.82
2023-02-12T11:27:26.840Z,7.71
2023-02-12T11:29:33.074Z,8.26
2023-02-12T11:31:41.008Z,7.86
2023-02-12T11:33:49.357Z,6.74
2023-02-12T11:35:55.631Z,6.49
2023-02-12T11:38:03.239Z,6.43
2023-02-12T11:40:09.724Z,6.33
2023-02-12T11:42:16.577Z,6.44
2023-02-12T11:44:23.266Z,6.04
2023-02-12T11:46:30.392Z,5.82
2023-02-12T11:48:38.912Z,5.69
2023-02-12T11:50:46.434Z,5.32
2023-02-12T11:52:58.878Z,4.62
2023-02-12T11:55:05.750Z,4.75
2023-02-12T11:57:12.785Z,4.74
2023-02-12T11:59:19.620Z,4.9
2023-02-12T12:01:26.523Z,5.16
2023-02-12T12:03:37.062Z,5.61
2023-02-12T12:05:45.152Z,6.2
2023-02-12T12:07:51.210Z,6.47
2023-02-12T12:09:59.404Z,5.39
2023-02-12T12:12:05.433Z,5.26
2023-02-12T12:14:14.799Z,5.74
2023-02-12T12:16:21.061Z,5.85
2023-02-12T12:18:32.165Z,5.41
2023-02-12T12:20:40.822Z,5.03
2023-02-12T12:22:49.736Z,4.65
2023-02-12T12:24:57.350Z,4.45
2023-02-12T12:27:04.673Z,4.02
2023-02-12T12:29:12.502Z,3.7
2023-02-12T12:31:19.665Z,3.58
2023-02-12T12:33:25.792Z,3.31
2023-02-12T12:35:33.966Z,3.45
2023-02-12T12:37:39.983Z,3.53
2023-02-12T12:39:46.537Z,3.54
2023-02-12T12:41:58.021Z,3.48
2023-02-12T12:44:05.951Z,3.57
2023-02-12T12:46:14.037Z,3.54
2023-02-12T12:48:22.396Z,3.4
2023-02-12T12:50:29.812Z,3.48
2023-02-12T12:52:37.666Z,3.49
2023-02-12T12:54:46.561Z,3.46
2023-02-12T12:56:55.405Z,3.41
2023-02-12T12:59:04.765Z,3.33
2023-02-12T13:01:11.348Z,3.19
2023-02-12T13:03:28.424Z,3.02
2023-02-12T13:05:35.857Z,3
2023-02-12T13:07:43.629Z,2.99
2023-02-12T13:09:51.429Z,3.07
2023-02-12T13:11:58.836Z,3.17
2023-02-12T13:14:11.148Z,3.21
2023-02-12T13:16:23.599Z,3.17
2023-02-12T13:18:31.785Z,3.22
2023-02-12T13:20:46.170Z,3.27
2023-02-12T13:22:54.587Z,3.19
2023-02-12T13:25:03.856Z,3.22
2023-02-12T13:27:11.097Z,3.25
2023-02-12T13:29:17.645Z,3.28
2023-02-12T13:31:32.839Z,3.35
2023-02-12T13:33:41.315Z,3.44
2023-02-12T13:35:50.813Z,3.36
2023-02-12T13:37:59.849Z,3.31
2023-02-12T13:40:06.977Z,3.26
2023-02-12T13:42:14.954Z,3.21
2023-02-12T13:44:23.687Z,3.09
2023-02-12T13:46:32.901Z,3.15
2023-02-12T13:48:40.325Z,3.17
2023-02-12T13:50:49.086Z,3.19
2023-02-12T13:53:04.196Z,3.19
2023-02-12T13:55:13.478Z,3.18
2023-02-12T13:57:21.904Z,3.1
2023-02-12T13:59:31.605Z,3.09
2023-02-12T14:01:40.607Z,3.05
2023-02-12T14:03:50.746Z,3.06
2023-02-12T14:05:57.876Z,3.04
2023-02-12T14:08:06.136Z,2.97
2023-02-12T14:10:18.563Z,2.88
2023-02-12T14:12:29.687Z,2.82
2023-02-12T14:14:35.945Z,2.83
2023-02-12T14:16:43.683Z,2.78
2023-02-12T14:18:52.587Z,2.73
2023-02-12T14:21:02.772Z,2.72
2023-02-12T14:23:10.814Z,2.7
2023-02-12T14:25:17.861Z,2.62
2023-02-12T14:27:27.165Z,2.63
2023-02-12T14:29:38.337Z,2.64
2023-02-12T14:31:47.402Z,2.61
2023-02-12T14:33:56.195Z,2.57
2023-02-12T14:36:03.760Z,2.51
2023-02-12T14:38:13.218Z,2.43
2023-02-12T14:40:20.844Z,2.39
2023-02-12T14:42:30.224Z,2.3
2023-02-12T14:44:40.067Z,2.21
2023-02-12T14:46:51.795Z,2.13
2023-02-12T14:49:00.347Z,2.11
2023-02-12T14:51:08.101Z,2.05
2023-02-12T14:53:18.618Z,1.96
2023-02-12T14:55:28.004Z,1.87
2023-02-12T14:57:36.953Z,1.79
2023-02-12T14:59:44.805Z,1.71
2023-02-12T15:01:53.224Z,1.67
2023-02-12T15:04:01.119Z,1.71
2023-02-12T15:06:09.099Z,1.63
2023-02-12T15:08:17.694Z,1.59
2023-02-12T15:10:25.501Z,1.5
2023-02-12T15:12:33.249Z,1.44
2023-02-12T15:14:41.896Z,1.36
2023-02-12T15:16:49.259Z,1.2
2023-02-12T15:18:57.502Z,1.11
2023-02-12T15:21:05.969Z,1.06
2023-02-12T15:23:14.294Z,1.06
2023-02-12T15:25:24.822Z,0.99
2023-02-12T15:27:32.966Z,0.86
2023-02-12T15:29:41.750Z,0.74
2023-02-12T15:31:49.901Z,0.63
2023-02-12T15:33:59.338Z,0.56
2023-02-12T15:36:04.856Z,0.49
2023-02-12T15:38:15.834Z,0.45
2023-02-12T15:40:23.823Z,0.47
2023-02-12T15:42:33.814Z,0.44
2023-02-12T15:44:42.522Z,0.31
2023-02-12T15:46:51.293Z,0.15
2023-02-12T15:49:02.375Z,0.02
2023-02-12T15:51:11.187Z,-0.14
2023-02-12T15:53:18.018Z,-0.27
2023-02-12T15:55:26.738Z,-0.39
2023-02-12T15:57:36.563Z,-0.37
2023-02-12T15:59:45.719Z,-0.51
2023-02-12T16:01:54.670Z,-0.58
2023-02-12T16:04:02.060Z,-0.71
2023-02-12T16:06:11.732Z,-0.82
2023-02-12T16:08:19.976Z,-0.91
2023-02-12T16:10:27.539Z,-1
2023-02-12T16:12:35.505Z,-1.08
2023-02-12T16:14:45.769Z,-1.15
2023-02-12T16:16:56.088Z,-1.26
2023-02-12T16:19:03.915Z,-1.4
2023-02-12T16:21:16.599Z,-1.51
2023-02-12T16:23:26.501Z,-1.56
2023-02-12T16:25:34.260Z,-1.68
2023-02-12T16:27:42.544Z,-1.65
2023-02-12T16:29:51.897Z,-1.77
2023-02-12T16:32:00.305Z,-1.8
2023-02-12T16:34:11.278Z,-1.64
2023-02-12T16:36:31.639Z,-1.67
2023-02-12T16:38:39.868Z,-1.74
2023-02-12T16:40:48.275Z,-1.82
2023-02-12T16:42:56.477Z,-1.89
2023-02-12T16:45:04.525Z,-1.92
2023-02-12T16:47:14.854Z,-1.87
2023-02-12T16:49:24.067Z,-1.91
2023-02-12T16:51:36.708Z,-1.97
2023-02-12T16:53:45.145Z,-2.07
2023-02-12T16:55:54.089Z,-2.05
2023-02-12T16:58:03.987Z,-2.1
2023-02-12T17:00:14.239Z,-2.04
2023-02-12T17:02:22.759Z,-2.01
2023-02-12T17:04:30.849Z,-2.07
2023-02-12T17:06:38.728Z,-2.11
2023-02-12T17:08:48.386Z,-2.13
2023-02-12T17:10:58.923Z,-2.07
2023-02-12T17:13:15.298Z,-1.99
2023-02-12T17:15:23.764Z,-1.92
2023-02-12T17:17:32.963Z,-1.87
2023-02-12T17:19:44.517Z,-1.92
2023-02-12T17:21:53.729Z,-1.91
2023-02-12T17:24:01.144Z,-1.94
2023-02-12T17:26:10.989Z,-1.81
2023-02-12T17:28:20.815Z,-1.7
2023-02-12T17:30:31.766Z,-1.77
2023-02-12T17:32:39.945Z,-1.78
2023-02-12T17:34:49.650Z,-1.83
2023-02-12T17:37:04.665Z,-1.92
2023-02-12T17:39:11.125Z,-1.97
2023-02-12T17:41:21.088Z,-2.06
2023-02-12T17:43:28.673Z,-2.08
2023-02-12T17:45:39.745Z,-2.18
2023-02-12T17:47:50.383Z,-2.28
2023-02-12T17:50:01.129Z,-2.3
2023-02-12T17:52:10.261Z,-2.29
2023-02-12T17:54:18.797Z,-2.39
2023-02-12T17:56:33.623Z,-2.47
2023-02-12T17:58:43.540Z,-2.5
2023-02-12T18:00:54.633Z,-2.47
2023-02-12T18:03:08.102Z,-2.54
2023-02-12T18:05:22.961Z,-2.62
2023-02-12T18:07:34.768Z,-2.68
2023-02-12T18:09:43.378Z,-2.7
2023-02-12T18:11:55.619Z,-2.69
2023-02-12T18:14:08.859Z,-2.72
2023-02-12T18:16:18.002Z,-2.71
2023-02-12T18:18:28.446Z,-2.69
2023-02-12T18:20:43.713Z,-2.71
2023-02-12T18:22:52.372Z,-2.71
2023-02-12T18:25:00.714Z,-2.79
2023-02-12T18:27:17.870Z,-2.81
2023-02-12T18:29:30.768Z,-2.83
2023-02-12T18:31:40.532Z,-2.79
2023-02-12T18:33:52.976Z,-2.72
2023-02-12T18:36:04.164Z,-2.65
2023-02-12T18:38:18.793Z,-2.57
2023-02-12T18:40:29.017Z,-2.47
2023-02-12T18:42:39.460Z,-2.36
2023-02-12T18:44:55.217Z,-2.14
2023-02-12T18:47:06.368Z,-1.88
2023-02-12T18:49:17.586Z,-1.72
2023-02-12T18:51:25.527Z,-1.46
2023-02-12T18:53:36.517Z,-1.28
2023-02-12T18:55:46.652Z,-1.14
2023-02-12T18:58:03.245Z,-1.06
2023-02-12T19:00:14.913Z,-0.96
2023-02-12T19:02:28.248Z,-0.82
2023-02-12T19:04:38.554Z,-0.77
2023-02-12T19:06:51.369Z,-0.74
2023-02-12T19:09:08.130Z,-0.67
2023-02-12T19:11:21.227Z,-0.66
2023-02-12T19:13:31.763Z,-0.61
2023-02-12T19:15:43.111Z,-0.55
2023-02-12T19:17:56.175Z,-0.39
2023-02-12T19:20:10.451Z,-0.26
2023-02-12T19:22:24.395Z,-0.21
2023-02-12T19:24:46.825Z,-0.23
2023-02-12T19:26:56.012Z,-0.24
2023-02-12T19:29:05.846Z,-0.23
2023-02-12T19:31:18.676Z,-0.22
2023-02-12T19:33:29.910Z,-0.09
2023-02-12T19:35:39.483Z,-0.03
2023-02-12T19:37:56.253Z,-0.02
2023-02-12T19:40:07.915Z,0.04
2023-02-12T19:42:17.532Z,0.09
2023-02-12T19:44:27.919Z,0.16
2023-02-12T19:46:40.300Z,0.3
2023-02-12T19:49:00.791Z,0.36
2023-02-12T19:51:16.067Z,0.39
2023-02-12T19:53:28.452Z,0.4
2023-02-12T19:55:41.880Z,0.46
2023-02-12T19:57:52.589Z,0.6
2023-02-12T20:00:02.446Z,0.6
2023-02-12T20:02:12.868Z,0.66
2023-02-12T20:04:25.981Z,0.67
2023-02-12T20:06:35.320Z,0.71
2023-02-12T20:08:43.722Z,0.75
2023-02-12T20:10:54.879Z,0.74
2023-02-12T20:13:04.005Z,0.77
2023-02-12T20:15:17.485Z,0.83
2023-02-12T20:17:32.836Z,1.02
2023-02-12T20:19:55.537Z,1.08
2023-02-12T20:22:10.794Z,1.16
2023-02-12T20:24:22.308Z,1.22
2023-02-12T20:26:31.823Z,1.29
2023-02-12T20:28:42.551Z,1.33
2023-02-12T20:31:04.369Z,1.33
2023-02-12T20:33:27.719Z,1.32
2023-02-12T20:35:46.732Z,1.33
2023-02-12T20:38:00.902Z,1.36
2023-02-12T20:40:12.343Z,1.39
2023-02-12T20:42:27.631Z,1.4
2023-02-12T20:44:43.876Z,1.41
2023-02-12T20:46:59.774Z,1.41
2023-02-12T20:49:10.179Z,1.46
2023-02-12T20:51:22.581Z,1.43
2023-02-12T20:53:35.406Z,1.44
2023-02-12T20:55:45.045Z,1.42
2023-02-12T20:57:54.796Z,1.48
2023-02-12T21:00:06.181Z,1.54
2023-02-12T21:02:18.134Z,1.61
2023-02-12T21:04:27.169Z,1.67
2023-02-12T21:06:38.485Z,1.7
2023-02-12T21:08:47.823Z,1.67
2023-02-12T21:10:55.697Z,1.68
2023-02-12T21:13:03.675Z,1.68
2023-02-12T21:15:11.829Z,1.68
2023-02-12T21:17:21.160Z,1.68
2023-02-12T21:19:30.636Z,1.7
2023-02-12T21:21:41.290Z,1.74
2023-02-12T21:23:51.102Z,1.83
2023-02-12T21:26:02.747Z,1.88
2023-02-12T21:28:13.141Z,1.93
2023-02-12T21:30:21.106Z,2.05
2023-02-12T21:32:29.829Z,2.07
2023-02-12T21:34:41.259Z,2.12
2023-02-12T21:36:55.289Z,2.11
2023-02-12T21:39:01.784Z,2.14
2023-02-12T21:41:08.201Z,2.14
2023-02-12T21:43:13.896Z,2.07
2023-02-12T21:45:22.635Z,2.06
2023-02-12T21:47:29.354Z,2.05
2023-02-12T21:49:36.189Z,2.04
2023-02-12T21:51:47.610Z,2.04
2023-02-12T21:53:54.795Z,2.02
2023-02-12T21:56:01.255Z,2.06
2023-02-12T21:58:08.772Z,2.08
2023-02-12T22:00:15.218Z,2.09
2023-02-12T22:02:21.947Z,2.08
2023-02-12T22:04:28.739Z,2.12
2023-02-12T22:06:34.442Z,2.13
2023-02-12T22:08:39.702Z,2.13
2023-02-12T22:10:45.217Z,2.11
2023-02-12T22:12:50.799Z,2.11
2023-02-12T22:14:56.274Z,2.1
2023-02-12T22:17:01.606Z,2.1
2023-02-12T22:19:06.994Z,2.11
2023-02-12T22:21:13.470Z,2.13
2023-02-12T22:23:19.413Z,2.16
2023-02-12T22:25:24.735Z,2.15
2023-02-12T22:27:30.275Z,2.22
2023-02-12T22:29:35.823Z,2.29
2023-02-12T22:31:42.878Z,2.35
2023-02-12T22:33:49.550Z,2.4
2023-02-12T22:35:54.906Z,2.44
2023-02-12T22:38:00.314Z,2.49
2023-02-12T22:40:05.980Z,2.54
2023-02-12T22:42:11.480Z,2.55
2023-02-12T22:44:18.372Z,2.58
2023-02-12T22:46:26.047Z,2.63
2023-02-12T22:48:31.605Z,2.66
2023-02-12T22:50:37.969Z,2.69
2023-02-12T22:52:43.603Z,2.71
2023-02-12T22:54:49.052Z,2.69
2023-02-12T22:56:54.653Z,2.7
2023-02-12T22:59:00.467Z,2.74
2023-02-12T23:01:06.040Z,2.72
2023-02-12T23:03:11.453Z,2.76
2023-02-12T23:05:16.882Z,2.8
2023-02-12T23:07:22.252Z,2.77
2023-02-12T23:09:27.598Z,2.76
2023-02-12T23:11:32.957Z,2.73
2023-02-12T23:13:38.426Z,2.76
2023-02-12T23:15:43.842Z,2.78
2023-02-12T23:17:50.137Z,2.76
2023-02-12T23:19:55.656Z,2.81
2023-02-12T23:22:01.144Z,2.86
2023-02-12T23:24:06.525Z,2.85
2023-02-12T23:26:11.629Z,2.89
2023-02-12T23:28:17.023Z,2.91
2023-02-12T23:30:22.682Z,2.92
2023-02-12T23:32:28.261Z,2.9
2023-02-12T23:34:33.506Z,2.94
2023-02-12T23:36:39.024Z,2.91
2023-02-12T23:38:44.490Z,2.9
2023-02-12T23:40:49.676Z,2.92
2023-02-12T23:42:54.828Z,2.94
2023-02-12T23:44:59.989Z,2.98
2023-02-12T23:47:05.350Z,2.96
2023-02-12T23:49:10.598Z,3.02
2023-02-12T23:51:15.957Z,3.03
2023-02-12T23:53:21.320Z,3.01
2023-02-12T23:55:26.936Z,2.98
2023-02-12T23:57:32.169Z,3.02
2023-02-12T23:59:37.735Z,3.06
